Nashville, Tennessee
Traffic Map
Current Weather Conditions
Nashville, Tennessee
Broken Clouds
Broken Clouds
78°
Feels Like: 81°
Wind Chill: 78° Ceiling: 1800
Heat Index: 81° Visibility: 10mi
Dew Point: 74° Wind: 8mph
Humidity: 87% Direction: 350° (N)
Pressure: 30.03in Gusts: 0mph
Raw Report DataKBNA 300953Z 35007KT 10SM BKN018 BKN028 BKN033 26/23 A3003 RMK AO2 SLP161 T02560233
Traffic Incident Summary
Active as of:
Severity:
Category:
InformationThere was an issue retrieving the traffic information for this location. Please try a different location or try again shortly.
Advertisements
Track Severe Weather on mobile